createdAt,value
2019-06-01T00:02:21.210Z,58.25
2019-06-01T00:04:54.396Z,57.90
2019-06-01T00:07:28.099Z,58.33
2019-06-01T00:10:00.886Z,58.05
2019-06-01T00:12:32.876Z,58.14
2019-06-01T00:17:39.634Z,58.79
2019-06-01T00:20:11.911Z,59.07
2019-06-01T00:22:43.568Z,58.88
2019-06-01T00:25:16.250Z,58.73
2019-06-01T00:27:52.885Z,58.52
2019-06-01T00:30:27.296Z,57.75
2019-06-01T00:32:58.275Z,57.57
2019-06-01T00:35:29.728Z,57.70
2019-06-01T00:38:01.585Z,58.11
2019-06-01T00:40:35.661Z,57.84
2019-06-01T00:43:08.171Z,56.89
2019-06-01T00:45:42.332Z,57.30
2019-06-01T00:48:15.688Z,57.51
2019-06-01T00:50:49.133Z,56.59
2019-06-01T00:53:20.948Z,56.02
2019-06-01T00:55:53.659Z,55.87
2019-06-01T00:58:25.170Z,57.37
2019-06-01T01:01:00.004Z,57.74
2019-06-01T01:03:31.865Z,58.47
2019-06-01T01:06:03.719Z,59.35
2019-06-01T01:08:38.297Z,62.47
2019-06-01T01:11:10.106Z,64.70
2019-06-01T01:13:41.842Z,66.75
2019-06-01T01:16:16.489Z,67.98
2019-06-01T01:18:51.742Z,68.65
2019-06-01T01:21:23.381Z,69.22
2019-06-01T01:23:56.859Z,69.96
2019-06-01T01:26:30.268Z,70.22
2019-06-01T01:29:04.903Z,70.50
2019-06-01T01:31:39.427Z,70.99
2019-06-01T01:34:11.399Z,71.17
2019-06-01T01:36:44.690Z,71.64
2019-06-01T01:39:16.335Z,72.04
2019-06-01T01:41:50.550Z,72.19
2019-06-01T01:44:23.436Z,72.45
2019-06-01T01:47:01.151Z,72.38
2019-06-01T01:49:34.232Z,72.60
2019-06-01T01:52:06.086Z,72.59
2019-06-01T01:54:41.530Z,72.58
2019-06-01T01:57:14.110Z,72.69
2019-06-01T01:59:48.013Z,72.69
2019-06-01T02:02:21.930Z,72.72
2019-06-01T02:04:57.841Z,72.54
2019-06-01T02:07:30.760Z,72.34
2019-06-01T02:10:07.163Z,72.86
2019-06-01T02:12:40.736Z,73.23
2019-06-01T02:15:15.873Z,73.42
2019-06-01T02:17:49.830Z,73.75
2019-06-01T02:20:21.980Z,74.09
2019-06-01T02:22:54.693Z,74.32
2019-06-01T02:25:27.819Z,74.52
2019-06-01T02:28:01.147Z,74.60
2019-06-01T02:30:34.612Z,74.50
2019-06-01T02:33:09.537Z,74.23
2019-06-01T02:35:42.423Z,74.62
2019-06-01T02:38:15.200Z,75.14
2019-06-01T02:40:48.146Z,74.83
2019-06-01T02:43:20.563Z,74.64
2019-06-01T02:45:52.831Z,74.46
2019-06-01T02:48:25.937Z,74.84
2019-06-01T02:50:59.779Z,74.85
2019-06-01T02:53:32.508Z,74.00
2019-06-01T02:56:07.045Z,73.34
2019-06-01T02:58:41.360Z,71.80
2019-06-01T03:01:17.099Z,69.69
2019-06-01T03:03:50.186Z,68.28
2019-06-01T03:06:23.379Z,64.99
2019-06-01T03:08:58.111Z,65.06
2019-06-01T03:11:32.942Z,63.02
2019-06-01T03:14:06.946Z,61.29
2019-06-01T03:16:43.333Z,60.92
2019-06-01T03:19:18.580Z,58.73
2019-06-01T03:21:50.519Z,58.20
2019-06-01T03:24:29.626Z,57.39
2019-06-01T03:27:04.674Z,55.97
2019-06-01T03:29:39.946Z,56.41
2019-06-01T03:32:29.818Z,56.41
2019-06-01T03:34:45.797Z,55.96
2019-06-01T03:37:17.750Z,53.81
2019-06-01T03:39:49.787Z,54.63
2019-06-01T03:42:22.599Z,52.74
2019-06-01T03:44:54.361Z,53.16
2019-06-01T03:47:26.216Z,52.44
2019-06-01T03:49:57.920Z,53.24
2019-06-01T03:52:31.110Z,53.17
2019-06-01T03:55:03.662Z,52.86
2019-06-01T03:57:36.217Z,53.75
2019-06-01T04:00:09.391Z,56.21
2019-06-01T04:02:41.346Z,54.49
2019-06-01T04:05:13.028Z,54.28
2019-06-01T04:07:44.788Z,52.26
2019-06-01T04:10:16.751Z,51.10
2019-06-01T04:12:48.631Z,52.57
2019-06-01T04:15:21.304Z,51.65
2019-06-01T04:17:54.891Z,51.81
2019-06-01T04:20:29.513Z,52.16
2019-06-01T04:23:02.132Z,49.86
2019-06-01T04:25:34.974Z,50.15
2019-06-01T04:28:08.266Z,47.82
2019-06-01T04:30:40.231Z,50.44
2019-06-01T04:33:13.246Z,49.53
2019-06-01T04:35:46.925Z,46.03
2019-06-01T04:38:20.212Z,46.52
2019-06-01T04:40:52.380Z,49.69
2019-06-01T04:43:26.294Z,48.07
2019-06-01T04:45:59.587Z,49.23
2019-06-01T04:48:31.356Z,48.60
2019-06-01T04:51:04.737Z,46.14
2019-06-01T04:53:36.609Z,46.12
2019-06-01T04:56:11.039Z,46.22
2019-06-01T04:58:44.115Z,45.57
2019-06-01T05:01:16.688Z,45.60
2019-06-01T05:03:51.160Z,44.52
2019-06-01T05:06:27.481Z,44.08
2019-06-01T05:09:01.996Z,42.79
2019-06-01T05:11:34.364Z,44.08
2019-06-01T05:14:07.531Z,42.98
2019-06-01T05:16:39.933Z,44.04
2019-06-01T05:19:16.741Z,43.32
2019-06-01T05:21:49.489Z,42.59
2019-06-01T05:24:22.471Z,44.87
2019-06-01T05:26:55.153Z,45.15
2019-06-01T05:29:27.322Z,44.64
2019-06-01T05:32:01.733Z,43.51
2019-06-01T05:34:36.632Z,42.96
2019-06-01T05:37:08.529Z,42.11
2019-06-01T05:39:41.325Z,43.20
2019-06-01T05:42:14.680Z,42.24
2019-06-01T05:44:49.441Z,41.61
2019-06-01T05:47:22.445Z,41.76
2019-06-01T05:49:54.693Z,40.31
2019-06-01T05:52:26.965Z,41.82
2019-06-01T05:54:59.540Z,42.59
2019-06-01T05:57:32.330Z,43.74
2019-06-01T06:00:10.999Z,43.86
2019-06-01T06:02:45.063Z,42.57
2019-06-01T06:05:18.734Z,40.91
2019-06-01T06:07:51.258Z,39.90
2019-06-01T06:10:24.793Z,39.22
2019-06-01T06:12:59.466Z,40.08
2019-06-01T06:15:39.376Z,38.46
2019-06-01T06:18:11.728Z,39.17
2019-06-01T06:20:44.006Z,37.72
2019-06-01T06:23:16.452Z,36.04
2019-06-01T06:25:49.109Z,37.44
2019-06-01T06:28:22.863Z,35.39
2019-06-01T06:30:55.324Z,35.08
2019-06-01T06:33:28.194Z,36.66
2019-06-01T06:36:03.827Z,37.16
2019-06-01T06:38:36.397Z,37.84
2019-06-01T06:41:09.270Z,37.80
2019-06-01T06:43:41.665Z,36.19
2019-06-01T06:46:14.533Z,35.38
2019-06-01T06:48:48.032Z,33.86
2019-06-01T06:51:24.042Z,33.56
2019-06-01T06:53:56.765Z,33.54
2019-06-01T06:56:29.959Z,35.37
2019-06-01T06:59:02.348Z,35.91
2019-06-01T07:01:34.815Z,36.45
2019-06-01T07:04:13.016Z,36.06
2019-06-01T07:06:44.058Z,36.25
2019-06-01T07:09:16.227Z,37.67
2019-06-01T07:11:49.118Z,38.35
2019-06-01T07:14:23.521Z,38.28
2019-06-01T07:16:55.595Z,37.43
2019-06-01T07:19:28.008Z,38.68
2019-06-01T07:22:02.959Z,39.47
2019-06-01T07:24:35.505Z,38.69
2019-06-01T07:27:07.366Z,37.91
2019-06-01T07:29:39.711Z,39.81
2019-06-01T07:32:12.729Z,39.67
2019-06-01T07:34:47.708Z,41.21
2019-06-01T07:37:24.925Z,41.28
2019-06-01T07:39:58.665Z,41.25
2019-06-01T07:42:30.137Z,39.59
2019-06-01T07:45:04.584Z,40.41
2019-06-01T07:47:38.047Z,39.10
2019-06-01T07:50:10.629Z,38.98
2019-06-01T07:52:43.689Z,40.24
2019-06-01T07:55:15.735Z,39.71
2019-06-01T07:57:47.372Z,38.54
2019-06-01T08:00:22.957Z,38.01
2019-06-01T08:02:56.459Z,37.03
2019-06-01T08:05:32.351Z,37.08
2019-06-01T08:08:05.668Z,37.24
2019-06-01T08:10:39.564Z,38.34
2019-06-01T08:13:19.748Z,37.45
2019-06-01T08:15:53.553Z,37.59
2019-06-01T08:18:26.084Z,37.48
2019-06-01T08:21:00.607Z,36.70
2019-06-01T08:23:32.666Z,35.27
2019-06-01T08:26:04.778Z,36.74
2019-06-01T08:28:36.501Z,37.65
2019-06-01T08:31:08.585Z,36.81
2019-06-01T08:33:41.870Z,36.20
2019-06-01T08:36:13.951Z,36.83
2019-06-01T08:38:45.888Z,34.80
2019-06-01T08:41:17.761Z,34.75
2019-06-01T08:43:49.701Z,34.58
2019-06-01T08:46:21.557Z,34.26
2019-06-01T08:48:53.545Z,33.95
2019-06-01T08:51:28.273Z,33.76
2019-06-01T08:54:00.252Z,33.26
2019-06-01T08:56:32.316Z,32.94
2019-06-01T08:59:04.965Z,31.29
2019-06-01T09:01:37.272Z,30.90
2019-06-01T09:04:10.043Z,31.62
2019-06-01T09:06:43.726Z,31.59
2019-06-01T09:09:16.120Z,31.13
2019-06-01T09:11:48.216Z,32.70
2019-06-01T09:14:20.801Z,33.45
2019-06-01T09:16:53.203Z,33.45
2019-06-01T09:19:27.404Z,33.71
2019-06-01T09:21:59.448Z,34.96
2019-06-01T09:24:31.898Z,33.31
2019-06-01T09:27:04.094Z,33.95
2019-06-01T09:29:36.270Z,34.42
2019-06-01T09:32:11.403Z,34.34
2019-06-01T09:34:43.608Z,34.26
2019-06-01T09:37:16.607Z,34.18
2019-06-01T09:39:47.947Z,34.59
2019-06-01T09:42:19.312Z,34.59
2019-06-01T09:44:50.851Z,33.93
2019-06-01T09:47:23.487Z,34.19
2019-06-01T09:49:55.338Z,34.25
2019-06-01T09:52:27.535Z,33.82
2019-06-01T09:54:59.946Z,33.89
2019-06-01T09:57:32.428Z,34.56
2019-06-01T10:00:08.006Z,33.82
2019-06-01T10:02:40.058Z,33.99
2019-06-01T10:05:12.333Z,33.21
2019-06-01T10:07:44.278Z,33.26
2019-06-01T10:10:19.548Z,33.78
2019-06-01T10:12:50.965Z,34.16
2019-06-01T10:15:23.434Z,33.33
2019-06-01T10:17:54.793Z,35.17
2019-06-01T10:20:43.222Z,34.47
2019-06-01T10:23:16.378Z,34.42
2019-06-01T10:25:48.284Z,34.75
2019-06-01T10:28:19.649Z,34.14
2019-06-01T10:30:51.671Z,34.13
2019-06-01T10:33:23.736Z,33.65
2019-06-01T10:35:54.929Z,35.03
2019-06-01T10:38:27.068Z,34.33
2019-06-01T10:40:59.265Z,33.08
2019-06-01T10:43:31.492Z,32.65
2019-06-01T10:46:03.530Z,32.86
2019-06-01T10:48:36.458Z,31.98
2019-06-01T10:51:11.994Z,32.51
2019-06-01T10:53:46.395Z,32.65
2019-06-01T10:56:18.425Z,32.25
2019-06-01T10:58:59.936Z,32.64
2019-06-01T11:01:24.800Z,33.35
2019-06-01T11:03:58.553Z,32.53
2019-06-01T11:06:40.196Z,33.39
2019-06-01T11:09:05.722Z,33.35
2019-06-01T11:11:38.765Z,32.51
2019-06-01T11:14:11.484Z,32.36
2019-06-01T11:16:44.225Z,32.00
2019-06-01T11:19:16.644Z,31.85
2019-06-01T11:21:48.597Z,30.16
2019-06-01T11:24:20.680Z,31.39
2019-06-01T11:26:52.688Z,32.35
2019-06-01T11:29:25.762Z,31.96
2019-06-01T11:31:59.461Z,31.76
2019-06-01T11:34:31.738Z,31.71
2019-06-01T11:37:05.600Z,31.00
2019-06-01T11:39:38.464Z,31.43
2019-06-01T11:42:12.352Z,31.95
2019-06-01T11:44:45.839Z,31.88
2019-06-01T11:47:18.438Z,32.09
2019-06-01T11:49:50.527Z,31.38
2019-06-01T11:52:23.056Z,29.77
2019-06-01T11:54:55.055Z,30.28
2019-06-01T11:57:27.657Z,29.49
2019-06-01T12:00:00.039Z,29.68
2019-06-01T12:02:33.062Z,30.52
2019-06-01T12:05:07.164Z,30.77
2019-06-01T12:07:39.856Z,31.14
2019-06-01T12:10:12.866Z,31.15
2019-06-01T12:12:44.879Z,29.86
2019-06-01T12:15:18.799Z,30.34
2019-06-01T12:17:50.874Z,29.70
2019-06-01T12:20:24.373Z,30.71
2019-06-01T12:22:56.352Z,30.99
2019-06-01T12:25:28.303Z,31.06
2019-06-01T12:28:01.608Z,31.44
2019-06-01T12:30:34.682Z,31.29
2019-06-01T12:33:06.069Z,31.27
2019-06-01T12:35:38.060Z,31.78
2019-06-01T12:38:14.820Z,28.91
2019-06-01T12:40:48.938Z,29.13
2019-06-01T12:43:20.900Z,28.46
2019-06-01T12:46:07.000Z,30.58
2019-06-01T12:48:28.535Z,29.37
2019-06-01T12:51:00.630Z,27.99
2019-06-01T12:53:32.941Z,28.96
2019-06-01T12:56:05.088Z,28.45
2019-06-01T12:58:38.150Z,28.58
2019-06-01T13:01:10.209Z,27.49
2019-06-01T13:03:43.134Z,28.67
2019-06-01T13:06:15.267Z,28.33
2019-06-01T13:08:47.509Z,29.18
2019-06-01T13:11:19.533Z,29.80
2019-06-01T13:13:51.736Z,29.93
2019-06-01T13:16:24.040Z,31.45
2019-06-01T13:18:56.067Z,30.34
2019-06-01T13:21:30.864Z,29.32
2019-06-01T13:24:04.851Z,32.02
2019-06-01T13:26:38.966Z,29.06
2019-06-01T13:29:10.991Z,28.67
2019-06-01T13:31:44.398Z,27.79
2019-06-01T13:34:16.518Z,27.68
2019-06-01T13:36:49.036Z,28.80
2019-06-01T13:39:23.542Z,29.63
2019-06-01T13:41:55.593Z,28.83
2019-06-01T13:44:27.785Z,28.51
2019-06-01T13:47:01.394Z,29.25
2019-06-01T13:49:34.160Z,30.18
2019-06-01T13:52:06.184Z,29.63
2019-06-01T13:54:40.194Z,29.61
2019-06-01T13:57:12.440Z,30.59
2019-06-01T13:59:44.698Z,29.65
2019-06-01T14:02:16.594Z,29.33
2019-06-01T14:04:49.790Z,28.35
2019-06-01T14:07:21.822Z,28.99
2019-06-01T14:09:53.851Z,28.46
2019-06-01T14:12:27.437Z,28.57
2019-06-01T14:15:01.332Z,29.20
2019-06-01T14:17:33.962Z,28.32
2019-06-01T14:20:08.493Z,28.59
2019-06-01T14:22:43.479Z,28.34
2019-06-01T14:25:15.851Z,28.36
2019-06-01T14:27:48.303Z,28.75
2019-06-01T14:30:24.002Z,28.85
2019-06-01T14:32:56.899Z,29.07
2019-06-01T14:35:29.174Z,29.05
2019-06-01T14:38:03.059Z,29.67
2019-06-01T14:40:35.708Z,28.52
2019-06-01T14:43:08.008Z,29.18
2019-06-01T14:45:42.665Z,29.29
2019-06-01T14:48:14.719Z,29.25
2019-06-01T14:50:47.536Z,29.82
2019-06-01T14:53:19.515Z,30.11
2019-06-01T14:55:51.774Z,30.17
2019-06-01T14:58:23.391Z,30.06
2019-06-01T15:00:56.588Z,30.12
2019-06-01T15:03:28.158Z,30.02
2019-06-01T15:06:03.317Z,29.84
2019-06-01T15:08:34.767Z,29.58
2019-06-01T15:11:06.718Z,29.32
2019-06-01T15:13:39.907Z,29.75
2019-06-01T15:16:11.968Z,29.04
2019-06-01T15:18:44.560Z,28.96
2019-06-01T15:21:17.827Z,29.54
2019-06-01T15:23:51.949Z,30.32
2019-06-01T15:26:25.274Z,32.79
2019-06-01T15:28:57.136Z,34.91
2019-06-01T15:31:28.578Z,36.39
2019-06-01T15:34:01.895Z,38.12
2019-06-01T15:36:34.497Z,39.34
2019-06-01T15:39:23.476Z,40.25
2019-06-01T15:41:42.267Z,40.89
2019-06-01T15:44:14.476Z,41.43
2019-06-01T15:46:46.119Z,41.58
2019-06-01T15:49:18.408Z,42.09
2019-06-01T15:51:51.845Z,42.72
2019-06-01T15:54:23.429Z,42.86
2019-06-01T15:56:56.483Z,43.61
2019-06-01T15:59:28.506Z,43.43
2019-06-01T16:02:01.337Z,43.35
2019-06-01T16:04:35.889Z,43.62
2019-06-01T16:07:07.288Z,43.72
2019-06-01T16:09:43.016Z,44.35
2019-06-01T16:12:12.501Z,44.68
2019-06-01T16:14:44.051Z,45.22
2019-06-01T16:17:15.693Z,45.71
2019-06-01T16:19:49.392Z,46.11
2019-06-01T16:22:21.379Z,46.46
2019-06-01T16:24:54.053Z,47.09
2019-06-01T16:27:26.208Z,47.55
2019-06-01T16:30:01.275Z,47.88
2019-06-01T16:32:32.130Z,48.11
2019-06-01T16:35:05.058Z,48.71
2019-06-01T16:37:36.631Z,48.58
2019-06-01T16:40:10.534Z,48.95
2019-06-01T16:42:44.871Z,49.31
2019-06-01T16:45:18.158Z,49.44
2019-06-01T16:47:49.652Z,49.34
2019-06-01T16:50:21.838Z,49.65
2019-06-01T16:52:55.807Z,49.75
2019-06-01T16:55:27.578Z,50.04
2019-06-01T16:57:59.234Z,49.99
2019-06-01T17:00:32.027Z,50.28
2019-06-01T17:03:05.088Z,50.72
2019-06-01T17:05:37.389Z,50.72
2019-06-01T17:08:09.264Z,50.96
2019-06-01T17:10:41.200Z,51.39
2019-06-01T17:13:12.926Z,51.56
2019-06-01T17:15:45.856Z,51.71
2019-06-01T17:18:20.464Z,52.07
2019-06-01T17:20:54.210Z,52.11
2019-06-01T17:23:29.351Z,51.64
2019-06-01T17:26:00.451Z,51.44
2019-06-01T17:28:34.258Z,51.21
2019-06-01T17:31:09.096Z,51.20
2019-06-01T17:33:41.353Z,51.10
2019-06-01T17:36:13.213Z,50.99
2019-06-01T17:38:45.391Z,51.09
2019-06-01T17:41:18.775Z,50.92
2019-06-01T17:43:51.251Z,51.13
2019-06-01T17:46:22.935Z,50.99
2019-06-01T17:48:54.564Z,50.99
2019-06-01T17:51:26.465Z,51.13
2019-06-01T17:53:57.926Z,51.54
2019-06-01T17:56:29.365Z,51.71
2019-06-01T17:59:01.393Z,51.60
2019-06-01T18:01:34.390Z,51.95
2019-06-01T18:04:06.000Z,51.70
2019-06-01T18:06:37.605Z,51.94
2019-06-01T18:09:12.138Z,51.98
2019-06-01T18:11:43.863Z,51.84
2019-06-01T18:14:16.056Z,52.36
2019-06-01T18:16:47.725Z,52.59
2019-06-01T18:19:19.646Z,52.82
2019-06-01T18:21:51.363Z,53.18
2019-06-01T18:24:23.429Z,53.37
2019-06-01T18:26:55.085Z,53.42
2019-06-01T18:29:27.258Z,53.74
2019-06-01T18:32:00.178Z,53.70
2019-06-01T18:34:33.824Z,53.79
2019-06-01T18:37:05.776Z,53.79
2019-06-01T18:39:37.270Z,53.80
2019-06-01T18:42:08.750Z,53.80
2019-06-01T18:44:43.679Z,54.09
2019-06-01T18:47:31.448Z,54.40
2019-06-01T18:49:51.907Z,54.59
2019-06-01T18:52:25.617Z,54.75
2019-06-01T18:54:58.799Z,54.92
2019-06-01T18:57:36.074Z,54.91
2019-06-01T19:00:10.949Z,55.28
2019-06-01T19:02:42.064Z,55.15
2019-06-01T19:05:15.624Z,55.24
2019-06-01T19:07:47.111Z,55.14
2019-06-01T19:10:19.689Z,54.90
2019-06-01T19:12:55.240Z,54.66
2019-06-01T19:15:28.916Z,54.87
2019-06-01T19:18:00.904Z,54.46
2019-06-01T19:20:34.867Z,54.14
2019-06-01T19:23:08.690Z,54.23
2019-06-01T19:25:40.270Z,53.96
2019-06-01T19:28:13.216Z,54.10
2019-06-01T19:30:45.624Z,54.44
2019-06-01T19:33:19.289Z,54.55
2019-06-01T19:35:52.732Z,53.51
2019-06-01T19:38:24.798Z,53.09
2019-06-01T19:40:56.248Z,52.61
2019-06-01T19:43:29.641Z,52.66
2019-06-01T19:46:03.890Z,53.16
2019-06-01T19:48:38.532Z,53.50
2019-06-01T19:51:10.768Z,54.08
2019-06-01T19:53:44.354Z,54.06
2019-06-01T19:56:17.148Z,53.40
2019-06-01T19:58:50.533Z,55.59
2019-06-01T20:01:29.251Z,55.62
2019-06-01T20:04:01.115Z,55.39
2019-06-01T20:06:34.885Z,56.96
2019-06-01T20:09:07.948Z,57.16
2019-06-01T20:11:39.464Z,57.76
2019-06-01T20:14:12.195Z,58.74
2019-06-01T20:16:55.911Z,59.16
2019-06-01T20:19:29.069Z,60.33
2019-06-01T20:22:00.832Z,61.08
2019-06-01T20:24:34.433Z,62.40
2019-06-01T20:27:07.627Z,62.75
2019-06-01T20:29:40.201Z,63.90
2019-06-01T20:32:15.809Z,64.69
2019-06-01T20:34:47.614Z,66.17
2019-06-01T20:37:20.202Z,68.80
2019-06-01T20:39:54.302Z,70.88
2019-06-01T20:42:32.413Z,73.09
2019-06-01T20:45:02.213Z,75.41
2019-06-01T20:47:35.822Z,77.27
2019-06-01T20:50:10.454Z,77.95
2019-06-01T20:52:43.015Z,79.23
2019-06-01T20:55:15.290Z,80.52
2019-06-01T20:57:49.399Z,81.72
2019-06-01T21:00:23.777Z,82.71
2019-06-01T21:02:57.420Z,83.26
2019-06-01T21:05:30.405Z,83.79
2019-06-01T21:08:04.727Z,84.36
2019-06-01T21:10:37.102Z,84.75
2019-06-01T21:13:10.391Z,85.12
2019-06-01T21:15:44.052Z,84.91
2019-06-01T21:18:16.577Z,84.81
2019-06-01T21:20:50.174Z,84.77
2019-06-01T21:23:25.260Z,84.87
2019-06-01T21:25:59.149Z,84.61
2019-06-01T21:28:30.969Z,84.03
2019-06-01T21:31:03.194Z,84.09
2019-06-01T21:33:36.029Z,83.66
2019-06-01T21:36:09.220Z,82.68
2019-06-01T21:38:41.852Z,81.58
2019-06-01T21:41:17.510Z,81.17
2019-06-01T21:43:50.245Z,81.12
2019-06-01T21:46:22.289Z,81.07
2019-06-01T21:48:56.300Z,80.36
2019-06-01T21:51:33.511Z,80.39
2019-06-01T21:54:05.754Z,80.24
2019-06-01T21:56:38.432Z,80.75
2019-06-01T21:59:10.905Z,80.86
2019-06-01T22:01:44.813Z,80.82
2019-06-01T22:04:16.776Z,80.85
2019-06-01T22:06:48.739Z,80.71
2019-06-01T22:09:21.262Z,81.24
2019-06-01T22:11:53.189Z,81.42
2019-06-01T22:14:26.266Z,81.27
2019-06-01T22:17:00.994Z,80.80
2019-06-01T22:19:33.977Z,80.55
2019-06-01T22:22:06.249Z,80.57
2019-06-01T22:24:38.218Z,80.77
2019-06-01T22:27:10.698Z,80.67
2019-06-01T22:29:43.509Z,80.40
2019-06-01T22:32:15.533Z,80.29
2019-06-01T22:34:48.723Z,80.26
2019-06-01T22:37:22.222Z,79.88
2019-06-01T22:39:57.117Z,79.38
2019-06-01T22:42:29.325Z,79.20
2019-06-01T22:45:03.748Z,79.50
2019-06-01T22:47:36.529Z,79.29
2019-06-01T22:50:10.666Z,79.16
2019-06-01T22:52:43.737Z,78.98
2019-06-01T22:55:20.056Z,78.54
2019-06-01T22:57:53.077Z,78.27
2019-06-01T23:00:27.829Z,78.13
2019-06-01T23:02:59.771Z,77.64
2019-06-01T23:05:33.613Z,77.59
2019-06-01T23:08:09.613Z,77.21
2019-06-01T23:10:44.262Z,76.83
2019-06-01T23:13:16.589Z,76.93
2019-06-01T23:15:48.743Z,76.67
2019-06-01T23:18:21.720Z,76.50
2019-06-01T23:20:53.335Z,76.15
2019-06-01T23:23:28.036Z,75.76
2019-06-01T23:26:01.174Z,76.17
2019-06-01T23:28:33.631Z,76.21
2019-06-01T23:31:05.314Z,76.46
2019-06-01T23:33:38.373Z,76.57
2019-06-01T23:36:11.279Z,76.70
2019-06-01T23:38:44.964Z,76.89
2019-06-01T23:41:18.149Z,77.10
2019-06-01T23:43:49.915Z,77.17
2019-06-01T23:46:23.408Z,77.06
2019-06-01T23:48:56.406Z,77.09
2019-06-01T23:51:29.592Z,77.21
2019-06-01T23:54:02.062Z,77.13
2019-06-01T23:56:34.798Z,77.05
2019-06-01T23:59:08.399Z,77.03
